Time;durP1;ratioP1;P1;durP2;ratioP2;P2;SDS_P1;SDS_P2;PMS_P1;PMS_P2;Temp;Humidity;BMP_temperature;BMP_pressure;BME280_temperature;BME280_humidity;BME280_pressure;Samples;Min_cycle;Max_cycle;Signal;HPM_P1;HPM_P2
2023/08/14 00:00:51;;;;;;;10.40;5.47;;;;;;;18.45;100.00;100751.87;5588079;31;34963;-67
2023/08/14 00:03:57;;;;;;;12.15;4.82;;;;;;;18.36;100.00;100752.31;5587635;31;33826;-67
2023/08/14 00:07:00;;;;;;;8.15;4.90;;;;;;;18.35;100.00;100753.38;5587554;31;34604;-67
2023/08/14 00:10:03;;;;;;;8.65;4.57;;;;;;;18.34;100.00;100749.88;5586630;31;34546;-67
2023/08/14 00:13:06;;;;;;;12.15;5.15;;;;;;;18.30;100.00;100753.19;5587536;31;34461;-67
2023/08/14 00:16:09;;;;;;;15.80;5.30;;;;;;;18.17;100.00;100760.22;5586652;31;34858;-67
2023/08/14 00:19:12;;;;;;;11.90;5.40;;;;;;;18.10;100.00;100756.72;5587299;31;33826;-67
2023/08/14 00:22:15;;;;;;;10.93;5.57;;;;;;;18.08;100.00;100753.41;5587524;31;33623;-67
2023/08/14 00:25:18;;;;;;;6.30;5.03;;;;;;;17.99;100.00;100749.28;5587242;31;33774;-67
2023/08/14 00:28:21;;;;;;;10.30;5.43;;;;;;;17.97;100.00;100756.69;5587505;31;34467;-67
2023/08/14 00:31:24;;;;;;;10.77;5.05;;;;;;;17.94;100.00;100758.97;5587393;31;33798;-67
2023/08/14 00:34:27;;;;;;;7.85;5.30;;;;;;;17.92;100.00;100758.34;5587790;31;33579;-67
2023/08/14 00:37:44;;;;;;;9.30;5.12;;;;;;;17.89;100.00;100759.59;5586421;31;33972;-67
2023/08/14 00:40:47;;;;;;;8.90;5.25;;;;;;;17.86;100.00;100756.50;5587319;31;34454;-67
2023/08/14 00:43:51;;;;;;;8.73;4.93;;;;;;;17.79;100.00;100754.63;5587307;31;33929;-67
2023/08/14 00:46:54;;;;;;;12.50;5.20;;;;;;;17.84;100.00;100758.56;5587241;31;34514;-67
2023/08/14 00:49:57;;;;;;;10.10;5.03;;;;;;;17.91;100.00;100756.72;5587260;31;33784;-67
2023/08/14 00:53:02;;;;;;;9.45;5.12;;;;;;;17.88;100.00;100755.25;5587365;31;33908;-67
2023/08/14 00:56:05;;;;;;;9.57;4.90;;;;;;;17.91;100.00;100759.41;5587227;31;34045;-67
2023/08/14 00:59:09;;;;;;;8.93;5.28;;;;;;;17.81;100.00;100762.50;5587130;31;34902;-67
2023/08/14 01:02:12;;;;;;;11.57;4.82;;;;;;;17.76;100.00;100767.66;5587432;31;33988;-67
2023/08/14 01:05:16;;;;;;;7.53;4.75;;;;;;;17.72;100.00;100771.75;5586861;31;33955;-68
2023/08/14 01:08:19;;;;;;;8.75;4.65;;;;;;;17.64;100.00;100766.59;5587455;31;33881;-67
2023/08/14 01:11:47;;;;;;;6.22;4.60;;;;;;;17.59;100.00;100763.69;5587044;31;33706;-67
2023/08/14 01:14:58;;;;;;;10.60;4.80;;;;;;;17.60;100.00;100771.53;5574584;31;33354;-67
2023/08/14 01:18:03;;;;;;;10.07;4.30;;;;;;;17.57;100.00;100773.78;5587029;31;33670;-67
2023/08/14 01:21:15;;;;;;;8.02;4.40;;;;;;;17.54;100.00;100769.63;5586114;31;33911;-67
2023/08/14 01:24:40;;;;;;;5.40;4.50;;;;;;;17.51;100.00;100775.41;5586889;31;33899;-67
2023/08/14 01:27:43;;;;;;;7.22;4.50;;;;;;;17.47;100.00;100771.50;5587242;31;34529;-67
2023/08/14 01:30:46;;;;;;;8.20;4.47;;;;;;;17.50;100.00;100778.28;5586824;31;34279;-67
2023/08/14 01:33:49;;;;;;;10.40;4.53;;;;;;;17.41;100.00;100774.16;5586935;31;33961;-67
2023/08/14 01:37:01;;;;;;;5.50;4.68;;;;;;;17.34;100.00;100764.22;5586351;31;34828;-67
2023/08/14 01:40:12;;;;;;;6.25;4.43;;;;;;;17.31;100.00;100767.31;5586058;31;33644;-67
2023/08/14 01:43:29;;;;;;;6.28;4.70;;;;;;;17.28;100.00;100761.53;5586627;31;34913;-67
2023/08/14 01:46:34;;;;;;;8.75;4.90;;;;;;;17.22;100.00;100765.03;5586677;31;33563;-68
2023/08/14 01:49:38;;;;;;;7.57;4.72;;;;;;;17.17;100.00;100764.81;5586685;31;33780;-67
2023/08/14 01:52:41;;;;;;;8.57;5.00;;;;;;;17.11;100.00;100771.78;5586807;31;34483;-67
2023/08/14 01:55:44;;;;;;;9.52;5.03;;;;;;;17.07;100.00;100765.19;5587077;31;34961;-68
2023/08/14 01:58:47;;;;;;;9.02;5.15;;;;;;;17.04;100.00;100778.97;5586907;31;33848;-67
2023/08/14 02:01:50;;;;;;;7.78;5.12;;;;;;;17.00;100.00;100784.94;5586588;31;33599;-67
2023/08/14 02:04:53;;;;;;;7.78;5.00;;;;;;;16.97;100.00;100786.16;5588575;31;33584;-67
2023/08/14 02:07:56;;;;;;;8.65;5.32;;;;;;;17.01;100.00;100791.94;5606326;31;33551;-67
2023/08/14 02:11:06;;;;;;;12.88;5.37;;;;;;;17.07;100.00;100785.78;5606228;31;33773;-67
2023/08/14 02:14:08;;;;;;;11.18;5.35;;;;;;;16.98;100.00;100790.50;5605221;31;33574;-67
2023/08/14 02:17:11;;;;;;;6.72;5.47;;;;;;;17.04;100.00;100780.84;5606269;31;33905;-67
2023/08/14 02:20:16;;;;;;;9.05;5.18;;;;;;;17.16;100.00;100781.91;5606440;31;34020;-67
2023/08/14 02:23:19;;;;;;;9.93;5.80;;;;;;;17.22;100.00;100778.44;5606173;31;33803;-67
2023/08/14 02:26:22;;;;;;;12.48;5.60;;;;;;;17.15;100.00;100782.94;5606092;31;34622;-67
2023/08/14 02:29:25;;;;;;;6.35;5.22;;;;;;;17.16;100.00;100792.63;5605117;31;34820;-67
2023/08/14 02:32:28;;;;;;;7.22;5.03;;;;;;;17.16;100.00;100788.09;5605116;31;34090;-66
2023/08/14 02:35:31;;;;;;;7.97;5.22;;;;;;;17.17;100.00;100781.72;5605927;31;34999;-67
2023/08/14 02:38:34;;;;;;;7.10;5.05;;;;;;;17.19;100.00;100790.38;5605543;31;33818;-67
2023/08/14 02:41:37;;;;;;;8.10;5.30;;;;;;;17.20;100.00;100785.84;5605857;31;33806;-67
2023/08/14 02:44:40;;;;;;;17.25;5.20;;;;;;;17.16;100.00;100788.09;5605493;31;34034;-67
2023/08/14 02:47:43;;;;;;;6.53;4.93;;;;;;;17.07;100.00;100780.44;5605702;31;33841;-67
2023/08/14 02:50:46;;;;;;;9.63;4.80;;;;;;;17.00;100.00;100784.94;5608301;31;33677;-67
2023/08/14 02:53:49;;;;;;;8.00;4.93;;;;;;;16.93;100.00;100787.59;5608175;31;33936;-67
2023/08/14 02:56:52;;;;;;;7.03;4.68;;;;;;;16.84;100.00;100789.63;5608125;31;34367;-67
2023/08/14 02:59:57;;;;;;;6.68;4.80;;;;;;;16.73;100.00;100798.22;5608012;31;33862;-67
2023/08/14 03:02:59;;;;;;;9.15;4.82;;;;;;;16.66;100.00;100799.19;5608087;31;35447;-67
2023/08/14 03:06:03;;;;;;;5.82;4.62;;;;;;;16.61;100.00;100789.06;5600510;31;33643;-67
2023/08/14 03:09:05;;;;;;;8.40;5.10;;;;;;;16.54;100.00;100793.53;5608109;31;33958;-67
2023/08/14 03:12:08;;;;;;;6.37;4.80;;;;;;;16.57;100.00;100797.66;5608365;31;33858;-67
2023/08/14 03:15:11;;;;;;;6.47;5.32;;;;;;;16.53;100.00;100799.91;5607978;31;34651;-67
2023/08/14 03:18:14;;;;;;;6.45;4.53;;;;;;;16.49;100.00;100807.50;5608064;31;33697;-67
2023/08/14 03:21:17;;;;;;;8.10;4.78;;;;;;;16.45;100.00;100806.25;5608203;31;33928;-67
2023/08/14 03:24:20;;;;;;;7.50;4.70;;;;;;;16.42;100.00;100797.75;5607908;31;34771;-67
2023/08/14 03:27:23;;;;;;;8.23;4.78;;;;;;;16.36;100.00;100798.56;5607729;31;34505;-67
2023/08/14 03:30:26;;;;;;;8.80;4.95;;;;;;;16.34;100.00;100804.09;5608156;31;33632;-67
2023/08/14 03:33:29;;;;;;;7.90;5.72;;;;;;;16.32;100.00;100808.81;5606571;31;33588;-67
2023/08/14 03:36:32;;;;;;;7.22;5.20;;;;;;;16.29;100.00;100811.06;5607784;31;34281;-67
2023/08/14 03:39:35;;;;;;;8.50;4.70;;;;;;;16.36;100.00;100819.97;5607610;31;33681;-67
2023/08/14 03:42:38;;;;;;;6.95;4.70;;;;;;;16.40;100.00;100826.59;5607654;31;35115;-67
2023/08/14 03:45:41;;;;;;;9.18;5.05;;;;;;;16.39;100.00;100817.75;5607493;31;34089;-67
2023/08/14 03:48:43;;;;;;;12.13;5.30;;;;;;;16.40;100.00;100822.06;5607523;31;33883;-68
2023/08/14 03:51:46;;;;;;;8.30;5.05;;;;;;;16.47;100.00;100820.25;5606702;31;33976;-67
2023/08/14 03:54:49;;;;;;;6.07;5.20;;;;;;;16.43;100.00;100815.50;5606655;31;33668;-67
2023/08/14 03:57:52;;;;;;;7.45;5.25;;;;;;;16.43;100.00;100821.69;5607772;31;33561;-67
2023/08/14 04:00:55;;;;;;;8.27;5.65;;;;;;;16.45;100.00;100827.69;5607164;31;33790;-67
2023/08/14 04:03:58;;;;;;;7.10;5.20;;;;;;;16.42;100.00;100824.53;5607418;31;33765;-67
2023/08/14 04:07:01;;;;;;;8.10;5.35;;;;;;;16.56;100.00;100837.00;5607262;31;32433;-68
2023/08/14 04:10:04;;;;;;;8.65;5.30;;;;;;;16.65;100.00;100832.38;5606858;31;34444;-67
2023/08/14 04:13:07;;;;;;;8.32;5.05;;;;;;;16.69;100.00;100839.81;5606519;31;34071;-67
2023/08/14 04:16:10;;;;;;;19.95;5.87;;;;;;;16.82;100.00;100844.41;5606350;31;33828;-69
2023/08/14 04:19:14;;;;;;;10.20;5.25;;;;;;;16.91;100.00;100837.88;5607203;31;33743;-67
2023/08/14 04:22:17;;;;;;;8.80;5.40;;;;;;;16.93;100.00;100842.03;5607055;31;33899;-67
2023/08/14 04:25:21;;;;;;;10.10;5.05;;;;;;;16.97;100.00;100847.81;5607059;31;34571;-67
2023/08/14 04:28:23;;;;;;;171.35;15.05;;;;;;;17.12;100.00;100848.50;5607050;31;33560;-66
2023/08/14 04:31:26;;;;;;;8.18;4.85;;;;;;;17.23;100.00;100855.97;5607187;31;34472;-66
2023/08/14 04:34:29;;;;;;;6.15;4.95;;;;;;;17.18;100.00;100863.81;5607147;31;34492;-67
2023/08/14 04:37:32;;;;;;;6.65;5.10;;;;;;;17.28;100.00;100860.75;5607111;31;33920;-67
2023/08/14 04:40:35;;;;;;;9.07;5.25;;;;;;;17.35;100.00;100858.91;5607307;31;33644;-67
2023/08/14 04:43:38;;;;;;;8.40;5.37;;;;;;;17.39;100.00;100857.50;5606926;31;33628;-67
2023/08/14 04:46:41;;;;;;;7.55;5.10;;;;;;;17.46;100.00;100857.53;5606755;31;34176;-67
2023/08/14 04:50:01;;;;;;;9.68;5.55;;;;;;;17.51;100.00;100855.91;5606928;31;34386;-67
2023/08/14 04:53:04;;;;;;;13.43;4.62;;;;;;;17.59;100.00;100857.59;5606875;31;33927;-67
2023/08/14 04:56:08;;;;;;;12.93;5.15;;;;;;;17.65;100.00;100846.06;5607204;31;33684;-67
2023/08/14 04:59:11;;;;;;;11.07;5.87;;;;;;;17.72;100.00;100849.56;5606470;31;34350;-67
2023/08/14 05:02:15;;;;;;;8.13;5.22;;;;;;;17.77;100.00;100853.31;5606732;31;33794;-67
2023/08/14 05:05:19;;;;;;;9.35;5.12;;;;;;;17.86;100.00;100856.66;5604948;31;34020;-67
2023/08/14 05:08:22;;;;;;;11.82;5.00;;;;;;;18.02;100.00;100856.25;5592731;31;34962;-67
2023/08/14 05:11:25;;;;;;;7.25;4.93;;;;;;;18.21;100.00;100863.50;5586781;31;34308;-67
2023/08/14 05:14:27;;;;;;;6.90;4.55;;;;;;;18.31;100.00;100862.25;5586008;31;33536;-67
2023/08/14 05:17:31;;;;;;;12.90;5.28;;;;;;;18.38;100.00;100863.09;5586783;31;34106;-67
2023/08/14 05:20:34;;;;;;;12.82;4.80;;;;;;;18.46;100.00;100858.31;5586770;31;33829;-67
2023/08/14 05:23:37;;;;;;;11.57;4.72;;;;;;;18.65;100.00;100859.38;5586917;31;33887;-67
2023/08/14 05:26:40;;;;;;;11.73;4.78;;;;;;;18.75;100.00;100870.53;5596677;31;33953;-67
2023/08/14 05:29:45;;;;;;;8.93;5.15;;;;;;;18.83;100.00;100872.19;5606389;31;33823;-67
2023/08/14 05:32:48;;;;;;;11.85;4.50;;;;;;;18.86;100.00;100869.91;5601751;31;34811;-67
2023/08/14 05:35:51;;;;;;;9.95;4.53;;;;;;;18.97;100.00;100871.13;5596676;31;34688;-67
2023/08/14 05:38:53;;;;;;;8.43;4.35;;;;;;;19.07;100.00;100869.62;5592722;31;33592;-67
2023/08/14 05:41:56;;;;;;;10.98;4.25;;;;;;;19.21;100.00;100864.22;5595146;31;33899;-67
2023/08/14 05:44:59;;;;;;;6.47;4.80;;;;;;;19.36;100.00;100867.47;5587369;31;34734;-67
2023/08/14 05:48:03;;;;;;;5.00;4.15;;;;;;;19.48;100.00;100881.94;5586287;31;34030;-66
2023/08/14 05:51:06;;;;;;;8.60;4.43;;;;;;;19.43;100.00;100874.47;5580095;31;33897;-67
2023/08/14 05:54:09;;;;;;;6.05;4.55;;;;;;;19.51;100.00;100878.81;5589211;31;34711;-67
2023/08/14 05:57:12;;;;;;;8.93;4.28;;;;;;;19.63;100.00;100878.97;5604894;31;33609;-67
2023/08/14 06:00:15;;;;;;;10.43;4.53;;;;;;;19.75;100.00;100867.28;5601701;31;34673;-67
2023/08/14 06:03:18;;;;;;;9.85;4.28;;;;;;;19.88;100.00;100878.00;5599821;31;34091;-68
2023/08/14 06:06:34;;;;;;;6.70;4.28;;;;;;;19.94;100.00;100879.81;5595451;31;34219;-67
2023/08/14 06:09:37;;;;;;;9.30;4.20;;;;;;;20.11;100.00;100890.91;5594992;31;34567;-67
2023/08/14 06:12:41;;;;;;;6.50;3.97;;;;;;;20.11;100.00;100890.06;5593009;31;33965;-66
2023/08/14 06:15:44;;;;;;;9.02;4.40;;;;;;;20.14;100.00;100890.44;5591332;31;33820;-67
2023/08/14 06:18:48;;;;;;;8.25;4.40;;;;;;;20.30;100.00;100894.50;5603972;31;34054;-67
2023/08/14 06:21:51;;;;;;;7.37;4.45;;;;;;;20.50;100.00;100897.91;5586957;31;33755;-67
2023/08/14 06:24:54;;;;;;;8.63;4.20;;;;;;;20.69;100.00;100894.19;5585150;31;34464;-68
2023/08/14 06:27:57;;;;;;;7.87;4.12;;;;;;;20.94;100.00;100891.47;5598672;31;34789;-67
2023/08/14 06:31:03;;;;;;;8.68;4.12;;;;;;;21.00;100.00;100895.97;5605652;31;33785;-67
2023/08/14 06:34:06;;;;;;;13.35;3.80;;;;;;;21.11;100.00;100895.22;5595398;31;33796;-67
2023/08/14 06:37:12;;;;;;;8.73;3.58;;;;;;;21.21;100.00;100897.44;5585263;31;34334;-67
2023/08/14 06:40:15;;;;;;;8.63;3.53;;;;;;;21.32;100.00;100904.78;5600927;31;34005;-67
2023/08/14 06:43:17;;;;;;;5.80;4.20;;;;;;;21.51;100.00;100898.31;5605322;31;33880;-68
2023/08/14 06:46:20;;;;;;;6.97;3.85;;;;;;;21.72;100.00;100898.91;5605566;31;34760;-67
2023/08/14 06:49:23;;;;;;;7.55;3.85;;;;;;;21.86;100.00;100903.88;5599833;31;34164;-68
2023/08/14 06:52:26;;;;;;;7.00;3.92;;;;;;;22.14;100.00;100908.72;5600002;31;33249;-68
2023/08/14 06:55:28;;;;;;;10.40;4.00;;;;;;;22.38;100.00;100909.59;5591016;31;33671;-67
2023/08/14 06:58:31;;;;;;;12.55;4.10;;;;;;;22.59;100.00;100909.03;5585165;31;33864;-67
2023/08/14 07:01:34;;;;;;;11.30;4.05;;;;;;;22.88;100.00;100912.72;5585261;31;33732;-68
2023/08/14 07:04:37;;;;;;;5.32;3.78;;;;;;;23.19;100.00;100908.84;5584904;31;33774;-68
2023/08/14 07:07:40;;;;;;;6.57;3.28;;;;;;;23.40;100.00;100911.72;5585475;31;33604;-68
2023/08/14 07:10:43;;;;;;;11.98;3.72;;;;;;;23.69;100.00;100907.19;5585422;31;33790;-68
2023/08/14 07:13:45;;;;;;;12.40;3.97;;;;;;;24.12;98.45;100916.66;5583847;31;34067;-69
2023/08/14 07:16:50;;;;;;;9.07;3.35;;;;;;;25.41;87.16;100915.47;5587406;31;34155;-70
2023/08/14 07:19:53;;;;;;;7.05;3.25;;;;;;;26.44;77.11;100920.94;5585988;31;33973;-69
2023/08/14 07:22:56;;;;;;;5.47;2.90;;;;;;;26.86;66.17;100910.12;5592598;31;33812;-69
2023/08/14 07:26:03;;;;;;;7.78;3.22;;;;;;;27.87;62.14;100910.63;5591756;31;33698;-69
2023/08/14 07:29:07;;;;;;;8.85;3.12;;;;;;;27.89;59.85;100911.16;5603327;31;34000;-69
2023/08/14 07:32:09;;;;;;;6.65;3.10;;;;;;;28.79;57.32;100915.09;5602166;31;35331;-69
2023/08/14 07:35:12;;;;;;;4.78;2.62;;;;;;;28.20;56.53;100907.44;5603226;31;33841;-69
2023/08/14 07:38:15;;;;;;;7.28;2.83;;;;;;;28.29;55.60;100911.25;5607218;31;33971;-70
2023/08/14 07:41:18;;;;;;;9.20;3.40;;;;;;;29.74;53.59;100913.16;5607740;31;34745;-70
2023/08/14 07:44:20;;;;;;;18.23;2.75;;;;;;;30.31;49.69;100909.78;5606290;31;34572;-71
2023/08/14 07:47:23;;;;;;;7.43;2.85;;;;;;;30.29;48.20;100916.66;5606820;31;33940;-70
2023/08/14 07:50:26;;;;;;;8.55;2.85;;;;;;;31.14;46.49;100914.25;5606614;31;34105;-71
2023/08/14 07:53:29;;;;;;;5.03;2.85;;;;;;;31.86;45.28;100905.66;5605073;31;33933;-70
2023/08/14 07:56:32;;;;;;;6.87;2.60;;;;;;;29.61;50.97;100909.13;5607362;31;35283;-70
2023/08/14 07:59:35;;;;;;;14.57;2.70;;;;;;;30.62;47.85;100904.91;5607029;31;33860;-70
2023/08/14 08:02:37;;;;;;;7.45;2.50;;;;;;;32.18;43.80;100902.22;5605963;31;33842;-71
2023/08/14 08:05:41;;;;;;;7.12;2.60;;;;;;;32.74;42.87;100907.56;5606892;31;34373;-71
2023/08/14 08:08:43;;;;;;;6.00;2.17;;;;;;;32.81;42.53;100904.44;5605921;31;34432;-70
2023/08/14 08:11:49;;;;;;;30.60;2.70;;;;;;;33.29;40.37;100910.41;5606498;31;34280;-70
2023/08/14 08:14:52;;;;;;;6.32;2.60;;;;;;;33.86;39.39;100908.09;5607384;31;33803;-70
2023/08/14 08:17:55;;;;;;;5.25;2.17;;;;;;;33.30;40.03;100909.28;5606580;31;33930;-71
2023/08/14 08:20:58;;;;;;;9.27;2.50;;;;;;;32.70;40.29;100903.00;5606161;31;33918;-71
2023/08/14 08:24:01;;;;;;;3.90;2.20;;;;;;;34.07;36.80;100909.25;5606613;31;33945;-70
2023/08/14 08:27:03;;;;;;;5.70;2.40;;;;;;;33.95;36.98;100900.72;5605335;31;33946;-70
2023/08/14 08:30:07;;;;;;;7.37;2.20;;;;;;;34.34;36.11;100903.66;5606951;31;33888;-70
2023/08/14 08:33:09;;;;;;;7.75;2.35;;;;;;;34.83;35.78;100904.59;5606630;31;35107;-70
2023/08/14 08:36:13;;;;;;;6.53;1.98;;;;;;;35.33;34.34;100912.63;5606285;31;34105;-70
2023/08/14 08:39:15;;;;;;;4.40;2.00;;;;;;;36.08;32.62;100907.53;5606320;31;34190;-71
2023/08/14 08:42:22;;;;;;;7.72;2.60;;;;;;;36.66;31.19;100908.97;5601583;31;33948;-71
2023/08/14 08:45:34;;;;;;;6.37;2.00;;;;;;;37.37;30.71;100909.19;5586499;31;33988;-71
2023/08/14 08:48:42;;;;;;;5.43;2.03;;;;;;;38.11;28.57;100914.03;5586439;31;33954;-71
2023/08/14 08:51:45;;;;;;;5.12;2.15;;;;;;;37.71;29.64;100908.16;5602569;31;33761;-71
2023/08/14 08:54:51;;;;;;;9.20;2.53;;;;;;;35.86;30.67;100910.47;5589277;31;34023;-70
2023/08/14 08:57:56;;;;;;;9.93;2.22;;;;;;;34.79;32.84;100904.44;5586256;31;33738;-71
2023/08/14 09:01:01;;;;;;;7.78;2.17;;;;;;;36.44;30.98;100904.44;5597418;31;33871;-71
2023/08/14 09:04:04;;;;;;;9.88;2.00;;;;;;;37.33;30.28;100897.94;5586416;31;33898;-70
2023/08/14 09:07:07;;;;;;;11.43;2.20;;;;;;;36.56;29.86;100893.50;5590712;31;34133;-71
2023/08/14 09:10:11;;;;;;;8.48;2.25;;;;;;;39.02;28.39;100904.66;5601506;31;34628;-70
2023/08/14 09:13:14;;;;;;;4.30;2.12;;;;;;;38.68;28.39;100897.53;5606454;31;33858;-70
2023/08/14 09:16:17;;;;;;;9.00;2.37;;;;;;;37.70;29.33;100895.47;5606281;31;34999;-69
2023/08/14 09:19:20;;;;;;;10.82;2.10;;;;;;;39.48;26.95;100898.63;5589706;31;32844;-69
2023/08/14 09:22:26;;;;;;;18.08;2.60;;;;;;;39.68;26.65;100884.91;5588627;31;34206;-70
2023/08/14 09:25:31;;;;;;;3.33;1.87;;;;;;;38.05;27.98;100877.44;5595490;31;35363;-70
2023/08/14 09:28:35;;;;;;;9.45;1.90;;;;;;;39.01;28.31;100881.63;5596632;31;34583;-70
2023/08/14 09:31:44;;;;;;;13.07;2.33;;;;;;;40.02;26.40;100875.22;5586251;31;35110;-70
2023/08/14 09:34:47;;;;;;;8.60;1.98;;;;;;;40.12;25.64;100866.38;5587771;31;33850;-70
2023/08/14 09:37:50;;;;;;;5.78;2.25;;;;;;;39.65;26.70;100869.75;5595208;31;33945;-70
2023/08/14 09:40:57;;;;;;;13.80;2.35;;;;;;;40.27;25.75;100868.41;5588799;31;34144;-71
2023/08/14 09:44:00;;;;;;;;;;;;;;;40.43;25.47;100868.44;5587844;31;34066;-71
2023/08/14 09:47:04;;;;;;;6.43;2.05;;;;;;;40.56;24.76;100873.56;5598474;31;34382;-71
2023/08/14 09:50:11;;;;;;;4.28;1.87;;;;;;;40.86;25.35;100864.81;5602306;31;34488;-69
2023/08/14 09:53:14;;;;;;;5.50;1.80;;;;;;;41.07;24.56;100863.34;5586257;31;34807;-71
2023/08/14 09:56:18;;;;;;;4.95;1.75;;;;;;;39.29;25.39;100862.28;5590109;31;33407;-69
2023/08/14 09:59:22;;;;;;;6.15;2.10;;;;;;;39.88;24.91;100861.75;5589635;31;34321;-69
2023/08/14 10:02:26;;;;;;;6.37;1.85;;;;;;;38.31;26.46;100860.53;5586453;31;33831;-70
2023/08/14 10:05:30;;;;;;;6.93;2.17;;;;;;;38.75;27.11;100869.19;5586398;31;33829;-70
2023/08/14 10:08:34;;;;;;;6.82;1.95;;;;;;;39.37;26.52;100874.44;5586354;31;33893;-70
2023/08/14 10:11:39;;;;;;;3.95;1.95;;;;;;;39.74;25.95;100867.66;5585756;31;34401;-70
2023/08/14 10:14:47;;;;;;;7.35;1.95;;;;;;;40.58;24.98;100868.44;5586155;31;34157;-70
2023/08/14 10:17:56;;;;;;;3.12;1.70;;;;;;;40.68;24.85;100856.00;5596321;31;33583;-70
2023/08/14 10:21:01;;;;;;;5.22;1.90;;;;;;;43.45;22.51;100853.97;5605808;31;34236;-70
2023/08/14 10:24:05;;;;;;;6.07;2.30;;;;;;;39.76;25.14;100848.69;5605375;31;33956;-70
2023/08/14 10:27:08;;;;;;;5.70;1.87;;;;;;;40.81;24.82;100838.84;5605051;31;34725;-69
2023/08/14 10:30:12;;;;;;;5.62;2.00;;;;;;;38.99;27.14;100839.53;5605469;31;33742;-70
2023/08/14 10:33:15;;;;;;;2.20;1.50;;;;;;;37.62;28.07;100844.53;5605034;31;33169;-69
2023/08/14 10:36:19;;;;;;;3.35;1.73;;;;;;;34.52;31.84;100843.16;5604554;31;34617;-69
2023/08/14 10:39:34;;;;;;;18.23;2.37;;;;;;;34.72;31.52;100831.59;5605009;31;34027;-68
2023/08/14 10:42:41;;;;;;;4.62;1.92;;;;;;;36.05;29.90;100828.09;5605068;31;34898;-69
2023/08/14 10:45:44;;;;;;;3.90;2.05;;;;;;;38.97;26.26;100827.19;5605151;31;33785;-69
2023/08/14 10:48:51;;;;;;;7.53;2.00;;;;;;;39.70;25.87;100816.72;5599768;31;34121;-70
2023/08/14 10:51:59;;;;;;;4.60;2.28;;;;;;;41.33;23.80;100820.19;5587226;31;33302;-69
2023/08/14 10:55:02;;;;;;;6.60;2.00;;;;;;;42.47;24.28;100824.09;5589760;31;36377;-69
2023/08/14 10:58:37;;;;;;;5.45;1.85;;;;;;;41.16;25.42;100816.63;5585939;31;33738;-69
2023/08/14 11:01:40;;;;;;;3.78;1.83;;;;;;;43.07;22.22;100810.34;5592899;31;34005;-69
2023/08/14 11:05:00;;;;;;;4.57;1.70;;;;;;;42.78;22.07;100809.09;5584303;31;34221;-70
2023/08/14 11:08:06;;;;;;;4.30;1.80;;;;;;;44.15;20.33;100809.34;5585765;31;33652;-69
2023/08/14 11:11:10;;;;;;;4.35;2.00;;;;;;;42.69;22.50;100795.41;5585808;31;33881;-70
2023/08/14 11:14:13;;;;;;;5.87;1.90;;;;;;;42.27;22.41;100803.03;5588199;31;33952;-68
2023/08/14 11:17:17;;;;;;;7.03;1.92;;;;;;;42.07;22.10;100794.69;5587841;31;33841;-70
2023/08/14 11:20:20;;;;;;;3.33;1.70;;;;;;;42.68;22.54;100793.00;5592876;31;33881;-68
2023/08/14 11:23:23;;;;;;;5.90;2.08;;;;;;;41.41;23.03;100785.75;5607743;31;33591;-69
2023/08/14 11:26:30;;;;;;;4.37;2.10;;;;;;;42.18;23.49;100788.50;5607651;31;34050;-69
2023/08/14 11:29:34;;;;;;;3.95;1.77;;;;;;;42.88;22.27;100794.50;5607682;31;33857;-69
2023/08/14 11:32:38;;;;;;;3.17;1.80;;;;;;;45.45;19.66;100791.16;5607666;31;34592;-70
2023/08/14 11:35:41;;;;;;;4.95;1.70;;;;;;;45.43;19.79;100788.72;5607542;31;32600;-70
2023/08/14 11:38:45;;;;;;;5.12;1.92;;;;;;;43.84;20.82;100793.00;5607873;31;33584;-69
2023/08/14 11:41:51;;;;;;;2.35;1.60;;;;;;;41.91;22.78;100777.28;5607442;31;33913;-69
2023/08/14 11:44:54;;;;;;;3.30;1.65;;;;;;;43.76;21.29;100778.16;5607423;31;33578;-70
2023/08/14 11:47:56;;;;;;;7.40;2.12;;;;;;;45.52;20.46;100780.75;5607566;31;34564;-69
2023/08/14 11:51:00;;;;;;;6.00;1.80;;;;;;;44.62;20.00;100771.38;5606207;31;33752;-69
2023/08/14 11:54:03;;;;;;;3.90;1.92;;;;;;;45.13;20.12;100769.34;5607369;31;34005;-69
2023/08/14 11:57:08;;;;;;;4.57;1.90;;;;;;;46.71;17.69;100772.94;5607175;31;34076;-68
2023/08/14 12:00:13;;;;;;;5.30;1.80;;;;;;;44.21;19.69;100763.03;5606186;31;34645;-69
2023/08/14 12:03:18;;;;;;;3.25;1.55;;;;;;;44.60;19.36;100766.16;5607034;31;33701;-69
2023/08/14 12:06:22;;;;;;;2.62;1.80;;;;;;;46.83;18.71;100775.31;5607228;31;33632;-69
2023/08/14 12:09:27;;;;;;;2.53;1.80;;;;;;;46.96;18.92;100767.28;5607494;31;33577;-70
2023/08/14 12:12:30;;;;;;;2.80;1.80;;;;;;;49.74;16.00;100770.25;5593383;31;33762;-70
2023/08/14 12:15:33;;;;;;;4.57;1.95;;;;;;;43.55;20.22;100770.31;5606385;31;34908;-69
2023/08/14 12:18:41;;;;;;;3.10;1.90;;;;;;;46.58;18.99;100772.53;5607056;31;33896;-69
2023/08/14 12:21:44;;;;;;;9.93;2.08;;;;;;;47.15;18.09;100766.81;5606631;31;34009;-70
2023/08/14 12:24:47;;;;;;;4.70;1.70;;;;;;;46.41;19.08;100770.53;5607075;31;33785;-70
2023/08/14 12:27:50;;;;;;;3.50;1.90;;;;;;;47.23;17.11;100759.97;5606887;31;33733;-69
2023/08/14 12:30:52;;;;;;;3.80;1.75;;;;;;;46.19;17.30;100757.69;5605297;31;34913;-68
2023/08/14 12:33:55;;;;;;;6.47;2.10;;;;;;;44.80;20.26;100752.72;5586355;31;34320;-69
2023/08/14 12:37:14;;;;;;;3.50;2.00;;;;;;;45.91;18.67;100747.22;5589443;31;34494;-69
2023/08/14 12:40:17;;;;;;;5.45;1.70;;;;;;;45.09;19.32;100750.91;5587131;31;34152;-69
2023/08/14 12:43:20;;;;;;;4.60;1.87;;;;;;;45.67;18.30;100737.53;5587069;31;34202;-69
2023/08/14 12:46:38;;;;;;;3.92;1.75;;;;;;;46.88;17.32;100744.00;5587444;31;33861;-70
2023/08/14 12:49:41;;;;;;;3.47;1.90;;;;;;;47.91;16.98;100746.38;5587597;31;33877;-69
2023/08/14 12:52:44;;;;;;;3.12;2.10;;;;;;;47.56;17.62;100744.56;5585909;31;33880;-69
2023/08/14 12:55:47;;;;;;;4.82;1.70;;;;;;;45.73;18.18;100743.56;5586284;31;34129;-69
2023/08/14 12:59:05;;;;;;;4.78;1.90;;;;;;;46.26;17.51;100744.47;5586782;31;34072;-68
2023/08/14 13:02:08;;;;;;;4.90;1.90;;;;;;;46.62;19.05;100742.47;5587391;31;34146;-69
2023/08/14 13:05:10;;;;;;;7.43;2.12;;;;;;;48.03;16.98;100739.50;5586908;31;34062;-69
2023/08/14 13:08:13;;;;;;;7.32;1.90;;;;;;;48.37;16.55;100740.41;5586916;31;33900;-69
2023/08/14 13:11:18;;;;;;;3.60;1.65;;;;;;;48.76;16.82;100732.37;5587126;31;33796;-70
2023/08/14 13:14:20;;;;;;;5.72;2.42;;;;;;;49.35;15.42;100734.09;5587539;31;34530;-69
2023/08/14 13:17:23;;;;;;;4.47;2.17;;;;;;;50.25;15.54;100735.19;5586453;31;34563;-69
2023/08/14 13:20:26;;;;;;;5.10;2.03;;;;;;;50.52;15.16;100724.63;5586916;31;33855;-69
2023/08/14 13:23:29;;;;;;;51.70;3.12;;;;;;;45.57;18.91;100717.91;5586769;31;33694;-69
2023/08/14 13:26:32;;;;;;;5.85;1.80;;;;;;;49.16;16.04;100718.63;5592683;31;34934;-69
2023/08/14 13:29:40;;;;;;;4.90;1.52;;;;;;;45.58;17.63;100719.50;5589966;31;34614;-69
2023/08/14 13:32:43;;;;;;;9.30;2.40;;;;;;;45.17;18.15;100711.34;5605581;31;33901;-69
2023/08/14 13:35:46;;;;;;;10.88;2.25;;;;;;;46.32;18.12;100705.59;5606073;31;33837;-69
2023/08/14 13:38:49;;;;;;;7.05;1.85;;;;;;;45.75;18.80;100696.31;5606414;31;33537;-69
2023/08/14 13:41:52;;;;;;;2.30;1.60;;;;;;;47.41;16.98;100704.47;5606517;31;34302;-68
2023/08/14 13:44:55;;;;;;;19.92;2.00;;;;;;;46.26;17.54;100705.19;5606239;31;34720;-69
2023/08/14 13:48:14;;;;;;;3.47;1.60;;;;;;;49.42;14.89;100701.00;5601728;31;33870;-69
2023/08/14 13:51:17;;;;;;;4.05;1.60;;;;;;;50.34;15.74;100704.38;5602690;31;34498;-69
2023/08/14 13:54:20;;;;;;;4.78;1.98;;;;;;;46.44;17.55;100698.75;5592683;31;33841;-69
2023/08/14 13:57:22;;;;;;;5.30;1.83;;;;;;;48.37;17.54;100701.00;5590379;31;33950;-69
2023/08/14 14:00:27;;;;;;;5.45;1.73;;;;;;;48.94;16.68;100692.75;5592715;31;34548;-69
2023/08/14 14:03:32;;;;;;;;;;;;;;;49.84;16.08;100691.09;5602445;31;34451;-68
2023/08/14 14:06:35;;;;;;;8.75;1.83;;;;;;;48.59;16.97;100685.47;5604589;31;34164;-69
2023/08/14 14:09:38;;;;;;;7.10;1.85;;;;;;;49.10;17.25;100675.22;5603241;31;33600;-68